sensor_id;sensor_type;location;lat;lon;timestamp;P1;durP1;ratioP1;P2;durP2;ratioP2
57810;SDS011;43640;47.550;7.590;2022-08-25T00:00:01;3.35;;;3.05;;
57810;SDS011;43640;47.550;7.590;2022-08-25T00:02:04;3.50;;;3.20;;
57810;SDS011;43640;47.550;7.590;2022-08-25T00:04:08;4.53;;;3.42;;
57810;SDS011;43640;47.550;7.590;2022-08-25T00:06:11;4.47;;;3.53;;
57810;SDS011;43640;47.550;7.590;2022-08-25T00:08:12;5.43;;;3.20;;
57810;SDS011;43640;47.550;7.590;2022-08-25T00:10:13;4.13;;;3.40;;
57810;SDS011;43640;47.550;7.590;2022-08-25T00:12:14;3.97;;;3.15;;
57810;SDS011;43640;47.550;7.590;2022-08-25T00:14:17;5.10;;;3.53;;
57810;SDS011;43640;47.550;7.590;2022-08-25T00:16:19;3.90;;;3.45;;
57810;SDS011;43640;47.550;7.590;2022-08-25T00:18:21;3.88;;;3.50;;
57810;SDS011;43640;47.550;7.590;2022-08-25T00:20:23;3.92;;;3.10;;
57810;SDS011;43640;47.550;7.590;2022-08-25T00:22:25;3.72;;;3.05;;
57810;SDS011;43640;47.550;7.590;2022-08-25T00:24:27;5.57;;;3.45;;
57810;SDS011;43640;47.550;7.590;2022-08-25T00:26:29;3.97;;;3.30;;
57810;SDS011;43640;47.550;7.590;2022-08-25T00:28:30;3.60;;;3.30;;
57810;SDS011;43640;47.550;7.590;2022-08-25T00:30:32;5.15;;;3.20;;
57810;SDS011;43640;47.550;7.590;2022-08-25T00:32:33;4.82;;;3.38;;
57810;SDS011;43640;47.550;7.590;2022-08-25T00:34:36;4.18;;;3.33;;
57810;SDS011;43640;47.550;7.590;2022-08-25T00:36:37;3.72;;;3.28;;
57810;SDS011;43640;47.550;7.590;2022-08-25T00:38:39;4.50;;;3.35;;
57810;SDS011;43640;47.550;7.590;2022-08-25T00:40:41;4.18;;;3.17;;
57810;SDS011;43640;47.550;7.590;2022-08-25T00:42:42;3.95;;;3.53;;
57810;SDS011;43640;47.550;7.590;2022-08-25T00:44:44;3.80;;;3.40;;
57810;SDS011;43640;47.550;7.590;2022-08-25T00:46:47;4.70;;;3.53;;
57810;SDS011;43640;47.550;7.590;2022-08-25T00:48:55;4.80;;;3.30;;
57810;SDS011;43640;47.550;7.590;2022-08-25T00:50:58;4.82;;;3.40;;
57810;SDS011;43640;47.550;7.590;2022-08-25T00:53:01;4.55;;;3.10;;
57810;SDS011;43640;47.550;7.590;2022-08-25T00:55:08;4.30;;;3.30;;
57810;SDS011;43640;47.550;7.590;2022-08-25T00:57:11;5.47;;;3.47;;
57810;SDS011;43640;47.550;7.590;2022-08-25T00:59:16;3.92;;;3.30;;
57810;SDS011;43640;47.550;7.590;2022-08-25T01:01:18;4.60;;;3.40;;
57810;SDS011;43640;47.550;7.590;2022-08-25T01:03:20;3.33;;;3.03;;
57810;SDS011;43640;47.550;7.590;2022-08-25T01:05:31;4.60;;;3.55;;
57810;SDS011;43640;47.550;7.590;2022-08-25T01:07:33;4.20;;;3.80;;
57810;SDS011;43640;47.550;7.590;2022-08-25T01:09:34;4.05;;;3.60;;
57810;SDS011;43640;47.550;7.590;2022-08-25T01:11:36;3.78;;;3.47;;
57810;SDS011;43640;47.550;7.590;2022-08-25T01:13:39;4.30;;;3.35;;
57810;SDS011;43640;47.550;7.590;2022-08-25T01:15:41;5.05;;;3.40;;
57810;SDS011;43640;47.550;7.590;2022-08-25T01:17:53;4.63;;;3.55;;
57810;SDS011;43640;47.550;7.590;2022-08-25T01:19:55;4.10;;;3.20;;
57810;SDS011;43640;47.550;7.590;2022-08-25T01:21:56;4.50;;;3.67;;
57810;SDS011;43640;47.550;7.590;2022-08-25T01:23:58;4.70;;;3.70;;
57810;SDS011;43640;47.550;7.590;2022-08-25T01:28:01;3.65;;;3.35;;
57810;SDS011;43640;47.550;7.590;2022-08-25T01:30:03;3.92;;;3.20;;
57810;SDS011;43640;47.550;7.590;2022-08-25T01:32:06;4.55;;;3.83;;
57810;SDS011;43640;47.550;7.590;2022-08-25T01:34:09;4.05;;;3.13;;
57810;SDS011;43640;47.550;7.590;2022-08-25T01:36:16;4.72;;;3.65;;
57810;SDS011;43640;47.550;7.590;2022-08-25T01:38:21;3.70;;;3.40;;
57810;SDS011;43640;47.550;7.590;2022-08-25T01:40:23;4.40;;;3.00;;
57810;SDS011;43640;47.550;7.590;2022-08-25T01:44:45;5.30;;;3.30;;
57810;SDS011;43640;47.550;7.590;2022-08-25T01:46:46;4.30;;;3.90;;
57810;SDS011;43640;47.550;7.590;2022-08-25T01:48:48;4.50;;;3.40;;
57810;SDS011;43640;47.550;7.590;2022-08-25T01:50:49;5.38;;;3.50;;
57810;SDS011;43640;47.550;7.590;2022-08-25T01:53:07;4.47;;;3.63;;
57810;SDS011;43640;47.550;7.590;2022-08-25T01:55:09;4.07;;;3.67;;
57810;SDS011;43640;47.550;7.590;2022-08-25T01:57:10;4.20;;;3.70;;
57810;SDS011;43640;47.550;7.590;2022-08-25T01:59:14;4.13;;;3.65;;
57810;SDS011;43640;47.550;7.590;2022-08-25T02:01:24;5.00;;;3.53;;
57810;SDS011;43640;47.550;7.590;2022-08-25T02:03:26;4.65;;;3.70;;
57810;SDS011;43640;47.550;7.590;2022-08-25T02:05:28;5.00;;;3.80;;
57810;SDS011;43640;47.550;7.590;2022-08-25T02:07:33;4.32;;;3.60;;
57810;SDS011;43640;47.550;7.590;2022-08-25T02:09:35;3.97;;;3.60;;
57810;SDS011;43640;47.550;7.590;2022-08-25T02:11:37;4.95;;;3.15;;
57810;SDS011;43640;47.550;7.590;2022-08-25T02:13:40;4.05;;;3.67;;
57810;SDS011;43640;47.550;7.590;2022-08-25T02:15:42;4.50;;;3.47;;
57810;SDS011;43640;47.550;7.590;2022-08-25T02:17:44;4.53;;;3.72;;
57810;SDS011;43640;47.550;7.590;2022-08-25T02:19:46;6.28;;;4.13;;
57810;SDS011;43640;47.550;7.590;2022-08-25T02:21:47;4.95;;;3.47;;
57810;SDS011;43640;47.550;7.590;2022-08-25T02:23:48;5.32;;;3.80;;
57810;SDS011;43640;47.550;7.590;2022-08-25T02:25:50;4.25;;;3.60;;
57810;SDS011;43640;47.550;7.590;2022-08-25T02:27:51;4.35;;;3.88;;
57810;SDS011;43640;47.550;7.590;2022-08-25T02:29:52;4.38;;;3.35;;
57810;SDS011;43640;47.550;7.590;2022-08-25T02:31:54;5.78;;;3.95;;
57810;SDS011;43640;47.550;7.590;2022-08-25T02:33:55;4.47;;;3.75;;
57810;SDS011;43640;47.550;7.590;2022-08-25T02:35:58;6.07;;;3.80;;
57810;SDS011;43640;47.550;7.590;2022-08-25T02:37:59;4.53;;;3.55;;
57810;SDS011;43640;47.550;7.590;2022-08-25T02:40:01;4.00;;;3.70;;
57810;SDS011;43640;47.550;7.590;2022-08-25T02:42:03;4.15;;;3.75;;
57810;SDS011;43640;47.550;7.590;2022-08-25T02:44:05;4.13;;;3.72;;
57810;SDS011;43640;47.550;7.590;2022-08-25T02:46:07;5.15;;;3.92;;
57810;SDS011;43640;47.550;7.590;2022-08-25T02:48:10;4.43;;;4.03;;
57810;SDS011;43640;47.550;7.590;2022-08-25T02:50:11;5.15;;;3.80;;
57810;SDS011;43640;47.550;7.590;2022-08-25T02:52:13;4.57;;;4.13;;
57810;SDS011;43640;47.550;7.590;2022-08-25T02:54:15;5.13;;;3.95;;
57810;SDS011;43640;47.550;7.590;2022-08-25T02:56:17;4.43;;;4.03;;
57810;SDS011;43640;47.550;7.590;2022-08-25T02:58:18;5.35;;;4.00;;
57810;SDS011;43640;47.550;7.590;2022-08-25T03:00:20;4.90;;;4.13;;
57810;SDS011;43640;47.550;7.590;2022-08-25T03:02:23;6.32;;;4.07;;
57810;SDS011;43640;47.550;7.590;2022-08-25T03:04:25;4.40;;;4.00;;
57810;SDS011;43640;47.550;7.590;2022-08-25T03:06:27;4.32;;;3.92;;
57810;SDS011;43640;47.550;7.590;2022-08-25T03:08:29;5.85;;;3.80;;
57810;SDS011;43640;47.550;7.590;2022-08-25T03:10:30;6.07;;;3.75;;
57810;SDS011;43640;47.550;7.590;2022-08-25T03:12:32;5.05;;;3.78;;
57810;SDS011;43640;47.550;7.590;2022-08-25T03:14:33;4.53;;;3.90;;
57810;SDS011;43640;47.550;7.590;2022-08-25T03:16:37;4.70;;;3.47;;
57810;SDS011;43640;47.550;7.590;2022-08-25T03:18:40;3.75;;;3.35;;
57810;SDS011;43640;47.550;7.590;2022-08-25T03:20:42;6.30;;;3.90;;
57810;SDS011;43640;47.550;7.590;2022-08-25T03:22:44;4.50;;;3.75;;
57810;SDS011;43640;47.550;7.590;2022-08-25T03:24:45;4.50;;;4.10;;
57810;SDS011;43640;47.550;7.590;2022-08-25T03:26:47;5.82;;;4.00;;
57810;SDS011;43640;47.550;7.590;2022-08-25T03:28:55;5.80;;;4.00;;
57810;SDS011;43640;47.550;7.590;2022-08-25T03:30:58;4.65;;;3.80;;
57810;SDS011;43640;47.550;7.590;2022-08-25T03:33:00;6.88;;;4.53;;
57810;SDS011;43640;47.550;7.590;2022-08-25T03:35:01;4.63;;;4.10;;
57810;SDS011;43640;47.550;7.590;2022-08-25T03:37:03;6.05;;;4.00;;
57810;SDS011;43640;47.550;7.590;2022-08-25T03:39:05;5.05;;;3.80;;
57810;SDS011;43640;47.550;7.590;2022-08-25T03:41:15;7.50;;;4.30;;
57810;SDS011;43640;47.550;7.590;2022-08-25T03:43:17;4.22;;;3.47;;
57810;SDS011;43640;47.550;7.590;2022-08-25T03:45:18;6.13;;;3.75;;
57810;SDS011;43640;47.550;7.590;2022-08-25T03:47:20;4.15;;;3.75;;
57810;SDS011;43640;47.550;7.590;2022-08-25T03:49:22;5.38;;;3.63;;
57810;SDS011;43640;47.550;7.590;2022-08-25T03:51:25;4.82;;;4.13;;
57810;SDS011;43640;47.550;7.590;2022-08-25T03:53:29;4.93;;;3.90;;
57810;SDS011;43640;47.550;7.590;2022-08-25T03:55:30;5.47;;;3.60;;
57810;SDS011;43640;47.550;7.590;2022-08-25T03:57:32;3.90;;;3.50;;
57810;SDS011;43640;47.550;7.590;2022-08-25T03:59:34;5.18;;;4.30;;
57810;SDS011;43640;47.550;7.590;2022-08-25T04:01:39;5.50;;;4.25;;
57810;SDS011;43640;47.550;7.590;2022-08-25T04:03:40;4.85;;;4.13;;
57810;SDS011;43640;47.550;7.590;2022-08-25T04:05:42;5.47;;;4.18;;
57810;SDS011;43640;47.550;7.590;2022-08-25T04:07:43;5.20;;;3.90;;
57810;SDS011;43640;47.550;7.590;2022-08-25T04:09:45;5.32;;;3.65;;
57810;SDS011;43640;47.550;7.590;2022-08-25T04:11:46;6.10;;;4.10;;
57810;SDS011;43640;47.550;7.590;2022-08-25T04:13:54;4.90;;;3.85;;
57810;SDS011;43640;47.550;7.590;2022-08-25T04:15:56;4.55;;;4.15;;
57810;SDS011;43640;47.550;7.590;2022-08-25T04:17:57;4.40;;;3.80;;
57810;SDS011;43640;47.550;7.590;2022-08-25T04:20:03;5.38;;;3.85;;
57810;SDS011;43640;47.550;7.590;2022-08-25T04:22:05;4.93;;;4.00;;
57810;SDS011;43640;47.550;7.590;2022-08-25T04:24:08;5.43;;;4.50;;
57810;SDS011;43640;47.550;7.590;2022-08-25T04:26:10;6.25;;;4.38;;
57810;SDS011;43640;47.550;7.590;2022-08-25T04:28:12;4.53;;;4.07;;
57810;SDS011;43640;47.550;7.590;2022-08-25T04:30:15;6.88;;;4.97;;
57810;SDS011;43640;47.550;7.590;2022-08-25T04:32:16;6.43;;;4.90;;
57810;SDS011;43640;47.550;7.590;2022-08-25T04:34:18;4.40;;;4.00;;
57810;SDS011;43640;47.550;7.590;2022-08-25T04:36:31;4.90;;;4.28;;
57810;SDS011;43640;47.550;7.590;2022-08-25T04:38:32;4.53;;;4.13;;
57810;SDS011;43640;47.550;7.590;2022-08-25T04:40:34;4.72;;;4.18;;
57810;SDS011;43640;47.550;7.590;2022-08-25T04:42:35;4.82;;;4.40;;
57810;SDS011;43640;47.550;7.590;2022-08-25T04:44:37;4.53;;;4.13;;
57810;SDS011;43640;47.550;7.590;2022-08-25T04:46:38;5.53;;;4.35;;
57810;SDS011;43640;47.550;7.590;2022-08-25T04:48:39;5.40;;;4.75;;
57810;SDS011;43640;47.550;7.590;2022-08-25T04:50:41;4.65;;;4.25;;
57810;SDS011;43640;47.550;7.590;2022-08-25T04:52:42;4.55;;;4.10;;
57810;SDS011;43640;47.550;7.590;2022-08-25T04:54:44;6.28;;;4.78;;
57810;SDS011;43640;47.550;7.590;2022-08-25T04:56:45;5.82;;;4.85;;
57810;SDS011;43640;47.550;7.590;2022-08-25T04:58:47;6.85;;;4.63;;
57810;SDS011;43640;47.550;7.590;2022-08-25T05:00:48;5.55;;;4.15;;
57810;SDS011;43640;47.550;7.590;2022-08-25T05:02:49;5.57;;;4.40;;
57810;SDS011;43640;47.550;7.590;2022-08-25T05:04:51;5.30;;;4.72;;
57810;SDS011;43640;47.550;7.590;2022-08-25T05:06:52;5.65;;;4.30;;
57810;SDS011;43640;47.550;7.590;2022-08-25T05:08:54;4.97;;;4.40;;
57810;SDS011;43640;47.550;7.590;2022-08-25T05:10:56;5.70;;;4.60;;
57810;SDS011;43640;47.550;7.590;2022-08-25T05:12:58;8.45;;;4.32;;
57810;SDS011;43640;47.550;7.590;2022-08-25T05:15:00;5.25;;;4.30;;
57810;SDS011;43640;47.550;7.590;2022-08-25T05:17:21;6.45;;;4.80;;
57810;SDS011;43640;47.550;7.590;2022-08-25T05:19:23;4.90;;;4.28;;
57810;SDS011;43640;47.550;7.590;2022-08-25T05:21:25;7.40;;;4.45;;
57810;SDS011;43640;47.550;7.590;2022-08-25T05:23:27;6.28;;;4.45;;
57810;SDS011;43640;47.550;7.590;2022-08-25T05:25:28;6.75;;;4.97;;
57810;SDS011;43640;47.550;7.590;2022-08-25T05:27:31;8.32;;;4.55;;
57810;SDS011;43640;47.550;7.590;2022-08-25T05:29:33;6.38;;;4.47;;
57810;SDS011;43640;47.550;7.590;2022-08-25T05:31:35;6.57;;;5.10;;
57810;SDS011;43640;47.550;7.590;2022-08-25T05:33:43;8.05;;;5.30;;
57810;SDS011;43640;47.550;7.590;2022-08-25T05:35:44;6.60;;;4.75;;
57810;SDS011;43640;47.550;7.590;2022-08-25T05:37:46;5.55;;;4.50;;
57810;SDS011;43640;47.550;7.590;2022-08-25T05:39:47;7.28;;;4.93;;
57810;SDS011;43640;47.550;7.590;2022-08-25T05:41:48;7.43;;;5.35;;
57810;SDS011;43640;47.550;7.590;2022-08-25T05:43:50;7.50;;;5.32;;
57810;SDS011;43640;47.550;7.590;2022-08-25T05:45:52;6.75;;;5.20;;
57810;SDS011;43640;47.550;7.590;2022-08-25T05:47:54;7.55;;;4.75;;
57810;SDS011;43640;47.550;7.590;2022-08-25T05:49:56;6.30;;;5.10;;
57810;SDS011;43640;47.550;7.590;2022-08-25T05:51:59;7.63;;;4.93;;
57810;SDS011;43640;47.550;7.590;2022-08-25T05:54:00;6.88;;;5.00;;
57810;SDS011;43640;47.550;7.590;2022-08-25T05:56:01;9.88;;;5.30;;
57810;SDS011;43640;47.550;7.590;2022-08-25T05:58:03;6.15;;;4.60;;
57810;SDS011;43640;47.550;7.590;2022-08-25T06:00:05;8.68;;;4.32;;
57810;SDS011;43640;47.550;7.590;2022-08-25T06:02:07;5.93;;;4.70;;
57810;SDS011;43640;47.550;7.590;2022-08-25T06:04:26;7.00;;;5.15;;
57810;SDS011;43640;47.550;7.590;2022-08-25T06:06:28;7.95;;;4.65;;
57810;SDS011;43640;47.550;7.590;2022-08-25T06:08:29;7.88;;;4.28;;
57810;SDS011;43640;47.550;7.590;2022-08-25T06:10:33;6.43;;;4.30;;
57810;SDS011;43640;47.550;7.590;2022-08-25T06:12:35;6.95;;;4.30;;
57810;SDS011;43640;47.550;7.590;2022-08-25T06:14:36;5.68;;;4.18;;
57810;SDS011;43640;47.550;7.590;2022-08-25T06:16:37;5.25;;;4.20;;
57810;SDS011;43640;47.550;7.590;2022-08-25T06:18:39;6.30;;;4.47;;
57810;SDS011;43640;47.550;7.590;2022-08-25T06:20:41;6.43;;;4.22;;
57810;SDS011;43640;47.550;7.590;2022-08-25T06:22:42;6.30;;;4.43;;
57810;SDS011;43640;47.550;7.590;2022-08-25T06:24:44;6.78;;;4.35;;
57810;SDS011;43640;47.550;7.590;2022-08-25T06:26:45;5.55;;;3.88;;
57810;SDS011;43640;47.550;7.590;2022-08-25T06:28:47;6.38;;;4.13;;
57810;SDS011;43640;47.550;7.590;2022-08-25T06:30:48;7.55;;;4.10;;
57810;SDS011;43640;47.550;7.590;2022-08-25T06:32:50;6.07;;;4.50;;
57810;SDS011;43640;47.550;7.590;2022-08-25T06:34:52;5.28;;;3.80;;
57810;SDS011;43640;47.550;7.590;2022-08-25T06:36:54;4.20;;;3.80;;
57810;SDS011;43640;47.550;7.590;2022-08-25T06:38:55;6.38;;;4.30;;
57810;SDS011;43640;47.550;7.590;2022-08-25T06:40:56;6.32;;;3.88;;
57810;SDS011;43640;47.550;7.590;2022-08-25T06:42:58;6.82;;;4.55;;
57810;SDS011;43640;47.550;7.590;2022-08-25T06:44:59;5.30;;;4.22;;
57810;SDS011;43640;47.550;7.590;2022-08-25T06:47:01;6.47;;;4.43;;
57810;SDS011;43640;47.550;7.590;2022-08-25T06:49:03;5.45;;;3.90;;
57810;SDS011;43640;47.550;7.590;2022-08-25T06:51:09;4.78;;;4.28;;
57810;SDS011;43640;47.550;7.590;2022-08-25T06:53:14;6.00;;;4.53;;
57810;SDS011;43640;47.550;7.590;2022-08-25T06:55:15;6.82;;;4.47;;
57810;SDS011;43640;47.550;7.590;2022-08-25T06:57:17;5.60;;;4.50;;
57810;SDS011;43640;47.550;7.590;2022-08-25T06:59:18;4.35;;;3.95;;
57810;SDS011;43640;47.550;7.590;2022-08-25T07:01:21;4.00;;;3.33;;
57810;SDS011;43640;47.550;7.590;2022-08-25T07:03:26;6.15;;;3.40;;
57810;SDS011;43640;47.550;7.590;2022-08-25T07:05:27;4.47;;;3.63;;
57810;SDS011;43640;47.550;7.590;2022-08-25T07:07:43;9.35;;;3.75;;
57810;SDS011;43640;47.550;7.590;2022-08-25T07:09:46;5.22;;;3.50;;
57810;SDS011;43640;47.550;7.590;2022-08-25T07:11:47;4.28;;;3.63;;
57810;SDS011;43640;47.550;7.590;2022-08-25T07:13:49;4.45;;;3.45;;
57810;SDS011;43640;47.550;7.590;2022-08-25T07:15:53;7.10;;;4.32;;
57810;SDS011;43640;47.550;7.590;2022-08-25T07:17:56;4.28;;;3.47;;
57810;SDS011;43640;47.550;7.590;2022-08-25T07:19:57;5.18;;;3.67;;
57810;SDS011;43640;47.550;7.590;2022-08-25T07:21:58;4.13;;;3.50;;
57810;SDS011;43640;47.550;7.590;2022-08-25T07:24:03;4.20;;;3.50;;
57810;SDS011;43640;47.550;7.590;2022-08-25T07:26:15;8.52;;;3.40;;
57810;SDS011;43640;47.550;7.590;2022-08-25T07:28:37;6.00;;;3.38;;
57810;SDS011;43640;47.550;7.590;2022-08-25T07:30:48;3.38;;;2.80;;
57810;SDS011;43640;47.550;7.590;2022-08-25T07:32:52;3.60;;;3.17;;
57810;SDS011;43640;47.550;7.590;2022-08-25T07:34:55;4.03;;;2.83;;
57810;SDS011;43640;47.550;7.590;2022-08-25T07:37:15;3.85;;;2.75;;
57810;SDS011;43640;47.550;7.590;2022-08-25T07:39:37;3.80;;;3.35;;
57810;SDS011;43640;47.550;7.590;2022-08-25T07:41:41;6.32;;;3.40;;
57810;SDS011;43640;47.550;7.590;2022-08-25T07:43:43;8.68;;;3.50;;
57810;SDS011;43640;47.550;7.590;2022-08-25T07:45:44;4.30;;;3.35;;
57810;SDS011;43640;47.550;7.590;2022-08-25T07:47:49;3.90;;;3.20;;
57810;SDS011;43640;47.550;7.590;2022-08-25T07:49:53;7.93;;;4.55;;
57810;SDS011;43640;47.550;7.590;2022-08-25T07:51:55;3.88;;;3.20;;
57810;SDS011;43640;47.550;7.590;2022-08-25T07:54:06;5.28;;;2.97;;
57810;SDS011;43640;47.550;7.590;2022-08-25T07:56:12;3.40;;;2.80;;
57810;SDS011;43640;47.550;7.590;2022-08-25T07:58:13;5.40;;;3.63;;
57810;SDS011;43640;47.550;7.590;2022-08-25T08:00:15;3.17;;;2.80;;
57810;SDS011;43640;47.550;7.590;2022-08-25T08:02:17;6.75;;;3.20;;
57810;SDS011;43640;47.550;7.590;2022-08-25T08:04:19;5.13;;;3.00;;
57810;SDS011;43640;47.550;7.590;2022-08-25T08:06:21;3.88;;;2.97;;
57810;SDS011;43640;47.550;7.590;2022-08-25T08:08:23;4.97;;;3.03;;
57810;SDS011;43640;47.550;7.590;2022-08-25T08:10:24;10.70;;;3.35;;
57810;SDS011;43640;47.550;7.590;2022-08-25T08:12:46;3.22;;;2.92;;
57810;SDS011;43640;47.550;7.590;2022-08-25T08:14:51;3.00;;;2.80;;
57810;SDS011;43640;47.550;7.590;2022-08-25T08:16:53;3.75;;;3.42;;
57810;SDS011;43640;47.550;7.590;2022-08-25T08:18:55;4.38;;;3.50;;
57810;SDS011;43640;47.550;7.590;2022-08-25T08:20:57;5.35;;;3.40;;
57810;SDS011;43640;47.550;7.590;2022-08-25T08:22:58;3.65;;;3.15;;
57810;SDS011;43640;47.550;7.590;2022-08-25T08:25:00;3.55;;;3.22;;
57810;SDS011;43640;47.550;7.590;2022-08-25T08:27:01;5.75;;;3.60;;
57810;SDS011;43640;47.550;7.590;2022-08-25T08:29:03;4.65;;;3.40;;
57810;SDS011;43640;47.550;7.590;2022-08-25T08:31:05;5.15;;;3.20;;
57810;SDS011;43640;47.550;7.590;2022-08-25T08:33:10;3.92;;;3.63;;
57810;SDS011;43640;47.550;7.590;2022-08-25T08:35:13;3.70;;;3.40;;
57810;SDS011;43640;47.550;7.590;2022-08-25T08:37:17;5.13;;;3.13;;
57810;SDS011;43640;47.550;7.590;2022-08-25T08:39:20;3.53;;;3.22;;
57810;SDS011;43640;47.550;7.590;2022-08-25T08:44:52;3.55;;;3.17;;
57810;SDS011;43640;47.550;7.590;2022-08-25T08:46:27;4.40;;;3.58;;
57810;SDS011;43640;47.550;7.590;2022-08-25T08:53:08;3.30;;;3.00;;
57810;SDS011;43640;47.550;7.590;2022-08-25T08:55:14;3.20;;;2.80;;
57810;SDS011;43640;47.550;7.590;2022-08-25T08:57:18;4.43;;;3.72;;
57810;SDS011;43640;47.550;7.590;2022-08-25T08:59:23;3.83;;;3.42;;
57810;SDS011;43640;47.550;7.590;2022-08-25T09:01:50;3.92;;;3.05;;
57810;SDS011;43640;47.550;7.590;2022-08-25T09:04:10;5.18;;;3.30;;
57810;SDS011;43640;47.550;7.590;2022-08-25T09:06:19;5.38;;;3.50;;
57810;SDS011;43640;47.550;7.590;2022-08-25T09:08:22;3.97;;;3.40;;
57810;SDS011;43640;47.550;7.590;2022-08-25T09:10:28;6.93;;;3.35;;
57810;SDS011;43640;47.550;7.590;2022-08-25T09:14:38;4.63;;;3.53;;
57810;SDS011;43640;47.550;7.590;2022-08-25T09:16:46;8.18;;;3.30;;
57810;SDS011;43640;47.550;7.590;2022-08-25T09:19:01;3.97;;;3.15;;
57810;SDS011;43640;47.550;7.590;2022-08-25T09:23:34;4.78;;;3.38;;
57810;SDS011;43640;47.550;7.590;2022-08-25T09:28:01;4.22;;;3.83;;
57810;SDS011;43640;47.550;7.590;2022-08-25T09:30:07;4.25;;;3.60;;
57810;SDS011;43640;47.550;7.590;2022-08-25T09:32:10;3.80;;;3.50;;
57810;SDS011;43640;47.550;7.590;2022-08-25T09:34:19;4.78;;;3.58;;
57810;SDS011;43640;47.550;7.590;2022-08-25T09:36:22;5.10;;;3.78;;
57810;SDS011;43640;47.550;7.590;2022-08-25T09:38:25;4.82;;;3.60;;
57810;SDS011;43640;47.550;7.590;2022-08-25T09:40:28;4.18;;;3.63;;
57810;SDS011;43640;47.550;7.590;2022-08-25T09:42:47;3.97;;;3.50;;
57810;SDS011;43640;47.550;7.590;2022-08-25T09:44:50;7.65;;;3.50;;
57810;SDS011;43640;47.550;7.590;2022-08-25T09:48:57;6.93;;;3.78;;
57810;SDS011;43640;47.550;7.590;2022-08-25T09:53:16;5.05;;;3.42;;
57810;SDS011;43640;47.550;7.590;2022-08-25T09:55:26;4.95;;;3.40;;
57810;SDS011;43640;47.550;7.590;2022-08-25T09:57:34;3.72;;;3.35;;
57810;SDS011;43640;47.550;7.590;2022-08-25T09:59:36;4.05;;;3.65;;
57810;SDS011;43640;47.550;7.590;2022-08-25T10:01:46;5.03;;;3.50;;
57810;SDS011;43640;47.550;7.590;2022-08-25T10:03:58;5.60;;;3.50;;
57810;SDS011;43640;47.550;7.590;2022-08-25T10:06:02;3.97;;;3.40;;
57810;SDS011;43640;47.550;7.590;2022-08-25T10:08:10;6.68;;;3.30;;
57810;SDS011;43640;47.550;7.590;2022-08-25T10:10:17;5.07;;;4.53;;
57810;SDS011;43640;47.550;7.590;2022-08-25T10:12:20;8.05;;;6.25;;
57810;SDS011;43640;47.550;7.590;2022-08-25T10:16:30;6.28;;;3.22;;
57810;SDS011;43640;47.550;7.590;2022-08-25T10:18:36;5.32;;;3.50;;
57810;SDS011;43640;47.550;7.590;2022-08-25T10:20:37;6.18;;;3.70;;
57810;SDS011;43640;47.550;7.590;2022-08-25T10:22:45;5.35;;;3.22;;
57810;SDS011;43640;47.550;7.590;2022-08-25T10:24:51;4.05;;;3.60;;
57810;SDS011;43640;47.550;7.590;2022-08-25T10:29:20;3.75;;;3.45;;
57810;SDS011;43640;47.550;7.590;2022-08-25T10:31:34;8.05;;;3.35;;
57810;SDS011;43640;47.550;7.590;2022-08-25T10:33:43;3.50;;;3.20;;
57810;SDS011;43640;47.550;7.590;2022-08-25T10:49:29;6.43;;;3.50;;
57810;SDS011;43640;47.550;7.590;2022-08-25T10:58:03;4.65;;;3.50;;
57810;SDS011;43640;47.550;7.590;2022-08-25T11:00:19;3.58;;;3.28;;
57810;SDS011;43640;47.550;7.590;2022-08-25T11:04:53;3.80;;;3.20;;
57810;SDS011;43640;47.550;7.590;2022-08-25T11:06:57;5.45;;;3.33;;
57810;SDS011;43640;47.550;7.590;2022-08-25T11:09:01;3.78;;;3.47;;
57810;SDS011;43640;47.550;7.590;2022-08-25T11:11:07;4.53;;;3.50;;
57810;SDS011;43640;47.550;7.590;2022-08-25T11:13:16;3.78;;;3.40;;
57810;SDS011;43640;47.550;7.590;2022-08-25T11:15:30;6.97;;;3.90;;
57810;SDS011;43640;47.550;7.590;2022-08-25T11:19:38;6.20;;;3.50;;
57810;SDS011;43640;47.550;7.590;2022-08-25T11:23:54;3.63;;;3.13;;
57810;SDS011;43640;47.550;7.590;2022-08-25T11:26:06;3.20;;;3.00;;
57810;SDS011;43640;47.550;7.590;2022-08-25T11:28:17;4.25;;;3.63;;
57810;SDS011;43640;47.550;7.590;2022-08-25T11:30:22;4.63;;;3.30;;
57810;SDS011;43640;47.550;7.590;2022-08-25T11:32:26;4.93;;;3.53;;
57810;SDS011;43640;47.550;7.590;2022-08-25T11:34:32;3.58;;;3.25;;
57810;SDS011;43640;47.550;7.590;2022-08-25T11:36:36;3.20;;;2.90;;
57810;SDS011;43640;47.550;7.590;2022-08-25T11:41:44;5.40;;;3.40;;
57810;SDS011;43640;47.550;7.590;2022-08-25T11:49:56;4.57;;;3.40;;
57810;SDS011;43640;47.550;7.590;2022-08-25T11:51:58;5.25;;;3.13;;
57810;SDS011;43640;47.550;7.590;2022-08-25T11:54:49;5.82;;;3.30;;
57810;SDS011;43640;47.550;7.590;2022-08-25T11:56:31;3.33;;;3.03;;
57810;SDS011;43640;47.550;7.590;2022-08-25T12:00:41;5.80;;;3.15;;
57810;SDS011;43640;47.550;7.590;2022-08-25T12:02:44;4.05;;;3.03;;
57810;SDS011;43640;47.550;7.590;2022-08-25T12:04:46;3.50;;;3.20;;
57810;SDS011;43640;47.550;7.590;2022-08-25T12:11:17;4.95;;;3.78;;
57810;SDS011;43640;47.550;7.590;2022-08-25T12:13:45;5.00;;;2.97;;
57810;SDS011;43640;47.550;7.590;2022-08-25T12:21:07;4.22;;;3.17;;
57810;SDS011;43640;47.550;7.590;2022-08-25T12:22:52;3.30;;;3.00;;
57810;SDS011;43640;47.550;7.590;2022-08-25T12:24:59;3.35;;;3.05;;
57810;SDS011;43640;47.550;7.590;2022-08-25T12:27:04;3.50;;;3.20;;
57810;SDS011;43640;47.550;7.590;2022-08-25T12:31:16;3.92;;;3.20;;
57810;SDS011;43640;47.550;7.590;2022-08-25T12:33:24;4.50;;;3.10;;
57810;SDS011;43640;47.550;7.590;2022-08-25T12:40:01;3.20;;;2.90;;
57810;SDS011;43640;47.550;7.590;2022-08-25T12:42:04;3.67;;;2.60;;
57810;SDS011;43640;47.550;7.590;2022-08-25T12:44:32;6.70;;;2.70;;
57810;SDS011;43640;47.550;7.590;2022-08-25T12:46:36;3.25;;;2.95;;
57810;SDS011;43640;47.550;7.590;2022-08-25T12:48:42;3.40;;;3.10;;
57810;SDS011;43640;47.550;7.590;2022-08-25T12:51:06;3.42;;;3.13;;
57810;SDS011;43640;47.550;7.590;2022-08-25T12:55:15;4.18;;;3.50;;
57810;SDS011;43640;47.550;7.590;2022-08-25T12:59:41;3.60;;;3.10;;
57810;SDS011;43640;47.550;7.590;2022-08-25T13:13:00;4.20;;;2.95;;
57810;SDS011;43640;47.550;7.590;2022-08-25T13:15:04;3.63;;;2.80;;
57810;SDS011;43640;47.550;7.590;2022-08-25T13:17:06;3.80;;;3.03;;
57810;SDS011;43640;47.550;7.590;2022-08-25T13:19:16;3.25;;;2.95;;
57810;SDS011;43640;47.550;7.590;2022-08-25T13:21:19;3.38;;;3.08;;
57810;SDS011;43640;47.550;7.590;2022-08-25T13:23:28;3.20;;;2.90;;
57810;SDS011;43640;47.550;7.590;2022-08-25T13:25:30;3.58;;;3.08;;
57810;SDS011;43640;47.550;7.590;2022-08-25T13:27:34;4.55;;;3.15;;
57810;SDS011;43640;47.550;7.590;2022-08-25T13:29:47;3.30;;;3.08;;
57810;SDS011;43640;47.550;7.590;2022-08-25T13:34:03;3.00;;;2.80;;
57810;SDS011;43640;47.550;7.590;2022-08-25T13:36:05;3.17;;;2.97;;
57810;SDS011;43640;47.550;7.590;2022-08-25T13:38:26;2.97;;;2.78;;
57810;SDS011;43640;47.550;7.590;2022-08-25T13:40:30;3.38;;;2.67;;
57810;SDS011;43640;47.550;7.590;2022-08-25T13:42:34;4.10;;;3.13;;
57810;SDS011;43640;47.550;7.590;2022-08-25T13:44:36;3.83;;;2.83;;
57810;SDS011;43640;47.550;7.590;2022-08-25T13:46:39;3.15;;;2.92;;
57810;SDS011;43640;47.550;7.590;2022-08-25T13:48:41;3.30;;;3.00;;
57810;SDS011;43640;47.550;7.590;2022-08-25T13:50:50;3.70;;;2.83;;
57810;SDS011;43640;47.550;7.590;2022-08-25T13:54:59;3.33;;;3.05;;
57810;SDS011;43640;47.550;7.590;2022-08-25T13:57:23;5.05;;;3.60;;
57810;SDS011;43640;47.550;7.590;2022-08-25T13:59:33;3.60;;;3.20;;
57810;SDS011;43640;47.550;7.590;2022-08-25T14:01:44;3.30;;;3.03;;
57810;SDS011;43640;47.550;7.590;2022-08-25T14:03:53;3.40;;;2.83;;
57810;SDS011;43640;47.550;7.590;2022-08-25T14:08:06;3.22;;;2.92;;
57810;SDS011;43640;47.550;7.590;2022-08-25T14:10:43;3.05;;;2.75;;
57810;SDS011;43640;47.550;7.590;2022-08-25T14:14:56;4.25;;;3.85;;